Time;durP1;ratioP1;P1;durP2;ratioP2;P2;SDS_P1;SDS_P2;PMS_P1;PMS_P2;Temp;Humidity;BMP_temperature;BMP_pressure;BME280_temperature;BME280_humidity;BME280_pressure;Samples;Min_cycle;Max_cycle;Signal;HPM_P1;HPM_P2
2022/06/28 00:00:20;;;;;;;4.03;3.58;;;;;;;24.36;55.59;99534.13;5011978;28;20030;-87
2022/06/28 00:02:46;;;;;;;3.65;2.80;;;;;;;24.18;55.49;99494.94;5011460;28;20520;-87
2022/06/28 00:05:12;;;;;;;5.20;3.40;;;;;;;24.30;55.53;99519.00;5012493;28;20026;-87
2022/06/28 00:07:38;;;;;;;5.55;3.78;;;;;;;24.31;55.38;99521.44;5013052;28;20439;-88
2022/06/28 00:10:05;;;;;;;4.82;3.60;;;;;;;24.22;55.76;99522.19;5012800;28;20030;-88
2022/06/28 00:12:30;;;;;;;3.50;3.20;;;;;;;23.29;55.72;99398.19;5012581;28;20052;-87
2022/06/28 00:17:42;;;;;;;5.80;3.70;;;;;;;24.35;56.03;99543.28;5013332;28;20127;-87
2022/06/28 00:20:08;;;;;;;3.88;3.40;;;;;;;24.15;56.05;99516.25;5011288;28;20037;-87
2022/06/28 00:22:34;;;;;;;4.53;3.22;;;;;;;23.46;55.89;99410.38;5011134;28;20049;-87
2022/06/28 00:24:59;;;;;;;4.72;3.50;;;;;;;23.62;55.90;99427.41;5012382;28;20125;-87
2022/06/28 00:27:25;;;;;;;5.07;3.78;;;;;;;24.02;55.82;99480.63;5012450;28;20108;-87
2022/06/28 00:29:50;;;;;;;4.30;3.47;;;;;;;23.96;55.77;99472.81;5012622;28;20026;-87
2022/06/28 00:32:15;;;;;;;5.72;3.47;;;;;;;24.24;55.68;99526.25;5011077;28;20022;-88
2022/06/28 00:34:41;;;;;;;4.13;3.70;;;;;;;23.64;56.00;99429.84;5010971;28;20037;-88
2022/06/28 00:37:06;;;;;;;4.38;3.95;;;;;;;23.54;56.05;99424.41;5011025;28;20025;-88
2022/06/28 00:39:32;;;;;;;3.50;3.20;;;;;;;23.88;56.37;99498.41;5011017;28;20033;-88
2022/06/28 00:41:57;;;;;;;6.70;3.70;;;;;;;23.27;56.43;99413.81;5011884;28;20030;-88
2022/06/28 00:44:23;;;;;;;3.78;3.47;;;;;;;23.93;56.45;99501.13;5012107;28;20108;-88
2022/06/28 00:46:49;;;;;;;5.53;4.10;;;;;;;23.95;56.32;99498.97;5011192;28;20397;-87
2022/06/28 00:49:14;;;;;;;6.57;3.88;;;;;;;23.75;56.44;99499.69;5017918;28;20029;-87
2022/06/28 00:51:40;;;;;;;4.88;3.50;;;;;;;24.12;56.50;99522.19;5033328;28;20017;-87
2022/06/28 00:54:07;;;;;;;6.50;3.85;;;;;;;23.54;56.66;99452.16;5015369;28;20034;-88
2022/06/28 00:56:32;;;;;;;4.30;3.85;;;;;;;23.45;56.36;99446.47;5013747;28;20080;-87
2022/06/28 00:58:58;;;;;;;3.65;3.35;;;;;;;23.42;56.38;99438.09;5011409;28;20038;-87
2022/06/28 01:01:25;;;;;;;6.68;4.40;;;;;;;23.60;56.35;99459.22;5010962;28;20486;-88
2022/06/28 01:03:51;;;;;;;7.45;3.88;;;;;;;23.76;56.38;99500.50;5010967;28;20517;-87
2022/06/28 01:06:17;;;;;;;4.47;4.18;;;;;;;23.42;56.19;99435.41;5010770;28;20046;-87
2022/06/28 01:08:45;;;;;;;3.83;3.53;;;;;;;24.01;56.50;99524.06;5011999;28;20049;-87
2022/06/28 01:11:21;;;;;;;4.63;3.90;;;;;;;24.00;56.29;99520.56;5010858;28;20045;-88
2022/06/28 01:14:00;;;;;;;6.30;4.47;;;;;;;23.65;56.33;99463.81;5010744;28;20079;-87
2022/06/28 01:16:27;;;;;;;5.28;4.03;;;;;;;23.97;56.62;99514.88;5010627;28;20026;-87
2022/06/28 01:18:52;;;;;;;6.45;4.38;;;;;;;22.92;56.46;99352.50;5014006;28;20065;-87
2022/06/28 01:21:18;;;;;;;4.90;4.30;;;;;;;23.94;56.66;99510.81;5014877;28;20042;-87
2022/06/28 01:23:45;;;;;;;5.18;4.15;;;;;;;23.14;57.04;99420.50;5014384;28;20029;-87
2022/06/28 01:26:14;;;;;;;4.90;3.83;;;;;;;23.80;57.12;99519.69;5014104;28;20394;-87
2022/06/28 01:28:41;;;;;;;4.95;3.92;;;;;;;23.31;57.21;99428.38;5015411;28;20034;-87
2022/06/28 01:31:07;;;;;;;4.30;3.90;;;;;;;23.65;56.95;99482.69;5014454;28;20437;-87
2022/06/28 01:33:36;;;;;;;6.13;3.53;;;;;;;23.75;57.04;99505.09;5014398;28;20105;-87
2022/06/28 01:36:03;;;;;;;4.53;3.78;;;;;;;23.67;56.73;99472.44;5014470;28;20029;-87
2022/06/28 01:38:28;;;;;;;4.97;3.47;;;;;;;23.70;56.84;99482.69;5014358;28;20022;-87
2022/06/28 01:40:54;;;;;;;4.43;3.45;;;;;;;23.98;56.88;99511.09;5014478;28;20099;-87
2022/06/28 01:43:20;;;;;;;4.07;3.72;;;;;;;23.91;56.81;99510.53;5014603;28;20026;-88
2022/06/28 01:45:45;;;;;;;5.05;3.40;;;;;;;23.61;56.77;99457.34;5025375;28;20022;-88
2022/06/28 01:48:11;;;;;;;4.13;3.65;;;;;;;23.76;56.68;99487.03;5026446;28;20041;-87
2022/06/28 01:50:37;;;;;;;6.28;3.60;;;;;;;23.90;56.48;99488.16;5038076;28;20000;-87
2022/06/28 01:53:03;;;;;;;4.47;3.35;;;;;;;24.07;56.52;99521.09;5023778;28;20022;-88
2022/06/28 01:55:29;;;;;;;5.28;3.80;;;;;;;23.82;56.24;99482.47;5018154;28;20045;-86
2022/06/28 01:57:55;;;;;;;4.65;3.67;;;;;;;23.55;56.40;99458.38;5015330;28;20042;-87
2022/06/28 02:00:20;;;;;;;7.57;4.00;;;;;;;23.56;56.25;99454.63;5013745;28;20056;-87
2022/06/28 02:02:46;;;;;;;5.43;3.50;;;;;;;23.56;56.28;99458.13;5013784;28;20413;-88
2022/06/28 02:05:11;;;;;;;6.05;3.70;;;;;;;23.94;56.25;99507.31;5014852;28;20038;-88
2022/06/28 02:07:37;;;;;;;5.10;3.80;;;;;;;24.06;56.03;99511.38;5014549;28;20413;-88
2022/06/28 02:10:02;;;;;;;5.50;4.65;;;;;;;24.11;55.90;99539.44;5015663;28;20022;-87
2022/06/28 02:12:28;;;;;;;5.82;4.30;;;;;;;22.96;55.71;99397.50;5015626;28;20524;-87
2022/06/28 02:14:57;;;;;;;5.80;4.20;;;;;;;23.87;55.66;99495.97;5015828;28;20033;-88
2022/06/28 02:17:24;;;;;;;8.73;5.15;;;;;;;23.91;55.61;99495.19;5015209;28;20109;-88
2022/06/28 02:19:50;;;;;;;4.38;3.97;;;;;;;23.77;55.53;99480.56;5014680;28;20038;-87
2022/06/28 02:22:15;;;;;;;5.88;4.20;;;;;;;23.19;55.46;99380.13;5015643;28;20030;-87
2022/06/28 02:24:40;;;;;;;5.15;4.47;;;;;;;23.33;55.22;99399.28;5013422;28;20088;-87
2022/06/28 02:27:06;;;;;;;5.38;4.55;;;;;;;23.89;55.48;99512.69;5013219;28;20022;-87
2022/06/28 02:29:31;;;;;;;5.40;4.30;;;;;;;23.34;55.49;99439.44;5013047;28;20033;-87
2022/06/28 02:31:57;;;;;;;5.15;4.65;;;;;;;23.48;55.53;99464.00;5013959;28;20101;-87
2022/06/28 02:42:34;;;;;;;4.93;4.22;;;;;;;23.22;56.02;99444.22;5014791;28;20033;-88
2022/06/28 02:44:59;;;;;;;7.50;4.63;;;;;;;22.75;55.76;99398.44;5014896;28;20022;-87
2022/06/28 02:47:24;;;;;;;6.35;5.32;;;;;;;23.30;55.70;99477.94;5026834;28;20022;-87
2022/06/28 02:49:50;;;;;;;6.80;5.38;;;;;;;23.14;55.72;99458.19;5034430;28;20026;-87
2022/06/28 02:52:15;;;;;;;6.80;5.07;;;;;;;23.54;55.60;99510.63;5017757;28;20486;-87
2022/06/28 02:54:41;;;;;;;5.40;4.55;;;;;;;23.52;55.28;99512.78;5013672;28;20022;-87
2022/06/28 02:57:06;;;;;;;5.55;4.53;;;;;;;22.94;55.11;99421.19;5012866;28;20030;-87
2022/06/28 02:59:32;;;;;;;8.00;4.70;;;;;;;23.58;54.77;99523.34;5012992;28;20506;-88
2022/06/28 03:01:57;;;;;;;5.72;4.82;;;;;;;23.22;54.82;99478.44;5014208;28;20025;-87
2022/06/28 03:04:23;;;;;;;7.10;4.60;;;;;;;23.43;54.76;99510.59;5013030;28;20030;-87
2022/06/28 03:06:48;;;;;;;5.38;4.97;;;;;;;23.03;54.88;99457.31;5013072;28;20501;-87
2022/06/28 03:09:14;;;;;;;8.48;5.25;;;;;;;23.47;55.00;99527.06;5013174;28;20510;-87
2022/06/28 03:11:40;;;;;;;6.07;5.55;;;;;;;22.52;54.85;99383.50;5013290;28;20026;-87
2022/06/28 03:14:05;;;;;;;9.10;5.50;;;;;;;23.53;54.76;99544.06;5013856;28;20505;-87
2022/06/28 03:16:31;;;;;;;6.63;5.32;;;;;;;23.10;54.63;99484.03;5013558;28;20014;-87
2022/06/28 03:18:56;;;;;;;7.55;5.05;;;;;;;23.27;54.78;99511.59;5012128;28;20024;-87
2022/06/28 03:21:22;;;;;;;7.88;5.07;;;;;;;22.74;54.55;99418.34;5012204;28;20024;-87
2022/06/28 03:23:47;;;;;;;5.85;4.93;;;;;;;22.78;54.76;99422.16;5012722;28;20030;-87
2022/06/28 03:26:12;;;;;;;7.40;4.80;;;;;;;23.01;54.80;99455.94;5012508;28;20413;-87
2022/06/28 03:28:38;;;;;;;5.90;4.63;;;;;;;23.62;54.31;99562.19;5013430;28;20411;-87
2022/06/28 03:31:04;;;;;;;7.53;4.85;;;;;;;23.18;54.25;99483.53;5011981;28;20481;-87
2022/06/28 03:33:29;;;;;;;7.95;4.97;;;;;;;23.23;54.27;99515.06;5012061;28;20022;-87
2022/06/28 03:35:55;;;;;;;5.65;4.97;;;;;;;22.72;54.41;99413.22;5012001;28;20029;-87
2022/06/28 03:38:20;;;;;;;7.07;5.43;;;;;;;22.90;54.14;99470.44;5011845;28;20033;-87
2022/06/28 03:40:46;;;;;;;8.07;4.82;;;;;;;23.00;54.46;99470.50;5010923;28;20087;-87
2022/06/28 03:43:11;;;;;;;7.50;5.65;;;;;;;23.22;54.24;99513.47;5013123;28;20022;-87
2022/06/28 03:45:36;;;;;;;6.95;5.00;;;;;;;23.14;54.27;99483.25;5011867;28;20084;-87
2022/06/28 03:48:02;;;;;;;7.00;4.72;;;;;;;23.12;53.96;99493.47;5013426;28;20108;-87
2022/06/28 03:50:27;;;;;;;6.03;4.70;;;;;;;23.13;53.89;99470.06;5011678;28;20053;-87
2022/06/28 03:52:53;;;;;;;5.60;5.00;;;;;;;23.58;53.50;99531.44;5012844;28;20048;-87
2022/06/28 03:55:18;;;;;;;5.55;4.90;;;;;;;23.26;53.78;99484.91;5011425;28;20041;-87
2022/06/28 03:57:44;;;;;;;5.90;5.30;;;;;;;22.71;53.69;99408.91;5011730;28;20022;-87
2022/06/28 04:00:10;;;;;;;8.25;5.10;;;;;;;23.08;53.80;99465.44;5011485;28;20029;-87
2022/06/28 04:02:35;;;;;;;7.50;5.63;;;;;;;23.22;53.76;99481.94;5011505;28;20053;-87
2022/06/28 04:05:01;;;;;;;5.93;5.43;;;;;;;23.66;53.69;99559.78;5012774;28;20175;-87
2022/06/28 04:07:26;;;;;;;6.20;4.93;;;;;;;23.45;53.09;99518.41;5011720;28;20022;-87
2022/06/28 04:09:51;;;;;;;6.40;5.40;;;;;;;23.70;53.24;99544.69;5012866;28;20029;-87
2022/06/28 04:12:17;;;;;;;6.38;5.32;;;;;;;23.56;52.98;99511.22;5012853;28;20028;-88
2022/06/28 04:14:42;;;;;;;5.85;5.32;;;;;;;22.63;52.97;99350.19;5011335;28;20029;-87
2022/06/28 04:17:08;;;;;;;5.80;5.20;;;;;;;23.18;52.84;99435.06;5011283;28;20519;-87
2022/06/28 04:19:33;;;;;;;8.57;5.22;;;;;;;23.92;52.77;99585.78;5011635;28;20026;-88
2022/06/28 04:21:59;;;;;;;6.88;5.22;;;;;;;23.18;52.83;99440.44;5011605;28;20025;-88
2022/06/28 04:24:25;;;;;;;7.65;5.25;;;;;;;23.37;52.25;99481.19;5011815;28;20036;-87
2022/06/28 04:26:52;;;;;;;8.23;5.57;;;;;;;24.08;52.36;99552.41;5011514;28;20049;-86
2022/06/28 04:29:17;;;;;;;5.78;4.97;;;;;;;23.65;51.92;99483.50;5011229;28;20139;-87
2022/06/28 04:31:43;;;;;;;6.78;5.40;;;;;;;23.55;52.12;99443.03;5011330;28;20545;-87
2022/06/28 04:34:08;;;;;;;6.93;5.22;;;;;;;23.82;51.58;99471.69;5012295;28;20017;-88
2022/06/28 04:36:33;;;;;;;5.40;4.70;;;;;;;23.79;51.52;99473.03;5014206;28;20029;-87
2022/06/28 04:38:59;;;;;;;8.50;5.18;;;;;;;23.95;51.43;99511.63;5015773;28;20026;-87
2022/06/28 04:41:24;;;;;;;6.57;5.03;;;;;;;23.10;51.28;99384.38;5028527;28;20026;-87
2022/06/28 04:43:53;;;;;;;5.57;4.97;;;;;;;24.07;51.39;99531.88;5019648;28;20026;-87
2022/06/28 04:46:22;;;;;;;5.57;4.95;;;;;;;24.09;51.28;99507.34;5012176;28;20042;-87
2022/06/28 04:48:47;;;;;;;5.78;5.18;;;;;;;23.96;51.27;99495.19;5011788;28;20022;-87
2022/06/28 04:51:13;;;;;;;9.98;4.75;;;;;;;23.91;51.23;99487.09;5011180;28;20033;-87
2022/06/28 04:53:42;;;;;;;6.30;4.47;;;;;;;23.98;51.11;99528.09;5013741;28;20018;-88
2022/06/28 04:56:09;;;;;;;5.47;4.72;;;;;;;24.46;50.85;99568.41;5012742;28;20050;-87
2022/06/28 04:58:35;;;;;;;7.35;5.07;;;;;;;24.31;51.21;99542.22;5011130;28;20025;-87
2022/06/28 05:01:01;;;;;;;6.45;5.13;;;;;;;24.41;50.97;99563.81;5010889;28;20022;-87
2022/06/28 05:03:26;;;;;;;7.25;5.22;;;;;;;24.39;51.08;99563.28;5010932;28;20026;-87
2022/06/28 05:05:52;;;;;;;5.35;4.85;;;;;;;24.29;50.94;99539.78;5010886;28;20030;-87
2022/06/28 05:08:18;;;;;;;5.57;5.07;;;;;;;23.86;51.26;99456.59;5012216;28;20036;-87
2022/06/28 05:10:44;;;;;;;5.88;5.07;;;;;;;23.84;51.24;99461.47;5010718;28;20406;-87
2022/06/28 05:13:09;;;;;;;6.03;5.40;;;;;;;24.19;51.00;99501.16;5012267;28;20030;-87
2022/06/28 05:15:35;;;;;;;5.10;4.70;;;;;;;24.06;50.81;99487.13;5010699;28;20080;-87
2022/06/28 05:18:00;;;;;;;5.30;4.80;;;;;;;24.12;50.59;99484.41;5010860;28;20028;-87
2022/06/28 05:20:25;;;;;;;7.05;5.05;;;;;;;24.16;50.96;99489.00;5010493;28;20021;-86
2022/06/28 05:22:51;;;;;;;5.60;5.10;;;;;;;23.96;50.92;99443.94;5012044;28;20034;-87
2022/06/28 05:25:17;;;;;;;5.72;5.22;;;;;;;24.28;50.70;99515.75;5011028;28;20018;-87
2022/06/28 05:27:43;;;;;;;8.18;5.78;;;;;;;24.86;50.37;99581.13;5011480;28;20021;-87
2022/06/28 05:30:09;;;;;;;6.70;5.15;;;;;;;24.31;50.43;99489.06;5010255;28;20516;-87
2022/06/28 05:32:34;;;;;;;5.90;4.80;;;;;;;24.25;50.33;99497.38;5010435;28;20014;-88
2022/06/28 05:35:00;;;;;;;6.03;5.03;;;;;;;24.79;50.43;99567.09;5010246;28;20033;-87
2022/06/28 05:37:25;;;;;;;6.03;5.47;;;;;;;24.89;50.54;99586.81;5010345;28;20021;-87
2022/06/28 05:39:50;;;;;;;5.93;4.75;;;;;;;24.93;50.64;99603.28;5011648;28;20022;-87
2022/06/28 05:42:16;;;;;;;5.30;4.82;;;;;;;24.61;50.12;99533.34;5010231;28;20014;-87
2022/06/28 05:44:42;;;;;;;6.20;5.00;;;;;;;24.87;50.71;99574.66;5009222;28;20026;-87
2022/06/28 05:47:08;;;;;;;6.50;5.32;;;;;;;24.31;50.25;99470.16;5010259;28;20088;-88
2022/06/28 05:49:33;;;;;;;6.78;6.00;;;;;;;24.34;49.86;99461.53;5009988;28;20041;-87
2022/06/28 05:51:59;;;;;;;5.22;4.60;;;;;;;24.76;49.88;99532.53;5010006;28;20398;-87
2022/06/28 05:54:24;;;;;;;7.65;4.90;;;;;;;24.92;49.56;99553.84;5009980;28;20032;-87
2022/06/28 05:56:49;;;;;;;6.68;5.72;;;;;;;25.19;49.73;99606.81;5010169;28;20033;-87
2022/06/28 05:59:15;;;;;;;5.68;5.18;;;;;;;25.23;49.75;99584.38;5011593;28;20125;-88
2022/06/28 06:01:40;;;;;;;5.05;4.65;;;;;;;25.22;49.67;99617.06;5010228;28;20018;-87
2022/06/28 06:04:06;;;;;;;5.25;4.75;;;;;;;24.85;49.79;99510.09;5012143;28;20018;-87
2022/06/28 06:06:32;;;;;;;10.00;5.63;;;;;;;25.37;49.62;99603.56;5014875;28;20040;-88
2022/06/28 06:08:57;;;;;;;7.82;5.05;;;;;;;25.36;49.66;99574.91;5013357;28;20486;-87
2022/06/28 06:11:23;;;;;;;6.80;5.18;;;;;;;25.31;49.70;99572.22;5014718;28;20028;-87
2022/06/28 06:13:48;;;;;;;6.43;5.07;;;;;;;25.36;49.29;99571.41;5015082;28;20096;-87
2022/06/28 06:16:14;;;;;;;5.68;4.70;;;;;;;24.99;49.31;99515.78;5013429;28;20104;-87
2022/06/28 06:18:39;;;;;;;5.90;5.30;;;;;;;25.30;49.15;99544.38;5013907;28;20034;-87
2022/06/28 06:21:05;;;;;;;4.88;4.47;;;;;;;25.78;49.12;99596.16;5015254;28;20026;-87
2022/06/28 06:23:31;;;;;;;5.45;4.93;;;;;;;25.41;49.05;99531.66;5015288;28;20076;-87
2022/06/28 06:25:56;;;;;;;7.10;6.30;;;;;;;25.26;48.98;99494.63;5015584;28;20030;-87
2022/06/28 06:28:22;;;;;;;8.27;5.05;;;;;;;25.69;48.72;99562.66;4997071;28;20109;-89
2022/06/28 06:30:48;;;;;;;6.07;5.40;;;;;;;26.02;48.77;99614.47;4994834;28;20026;-87
2022/06/28 06:33:13;;;;;;;7.45;5.32;;;;;;;26.05;48.36;99613.94;5007030;28;20034;-87
2022/06/28 06:35:39;;;;;;;6.10;5.57;;;;;;;25.77;48.52;99550.47;5006005;28;20030;-85
2022/06/28 06:38:07;;;;;;;8.98;7.07;;;;;;;25.82;48.43;99569.38;5018557;28;20037;-86
2022/06/28 06:40:33;;;;;;;8.95;6.85;;;;;;;26.13;48.12;99595.22;5015512;28;20021;-87
2022/06/28 06:42:58;;;;;;;11.25;5.95;;;;;;;25.93;48.51;99550.09;5015096;28;20494;-87
2022/06/28 06:45:24;;;;;;;7.13;5.97;;;;;;;26.17;48.20;99584.63;5013964;28;20032;-88
2022/06/28 06:47:49;;;;;;;6.25;4.72;;;;;;;26.22;47.77;99607.06;5014255;28;20026;-87
2022/06/28 06:50:15;;;;;;;8.20;7.35;;;;;;;26.21;47.71;99591.09;5013580;28;20026;-87
2022/06/28 06:52:41;;;;;;;7.43;5.60;;;;;;;25.02;47.90;99389.09;5045563;28;20498;-87
2022/06/28 06:55:07;;;;;;;10.30;5.63;;;;;;;24.97;47.47;99381.00;5012713;28;20046;-88
2022/06/28 06:57:33;;;;;;;8.82;6.55;;;;;;;25.78;47.59;99489.88;5014290;28;20018;-87
2022/06/28 06:59:58;;;;;;;7.07;6.18;;;;;;;26.01;47.83;99526.25;5010779;28;20180;-88
2022/06/28 07:02:23;;;;;;;6.63;5.88;;;;;;;26.07;47.78;99527.88;5014065;28;20060;-87
2022/06/28 07:04:49;;;;;;;7.90;5.78;;;;;;;26.63;47.83;99598.72;5012147;28;20109;-87
2022/06/28 07:07:14;;;;;;;5.57;5.07;;;;;;;25.42;47.71;99406.22;5007664;28;20566;-87
2022/06/28 07:09:40;;;;;;;9.88;5.63;;;;;;;26.12;47.50;99512.41;5014077;28;20084;-86
2022/06/28 07:12:06;;;;;;;5.88;5.25;;;;;;;26.25;47.57;99536.13;5013039;28;20026;-87
2022/06/28 07:14:32;;;;;;;6.55;5.95;;;;;;;25.91;47.54;99495.47;5013411;28;20024;-88
2022/06/28 07:16:57;;;;;;;6.70;5.55;;;;;;;26.80;47.38;99598.34;5013336;28;20413;-87
2022/06/28 07:19:23;;;;;;;5.80;5.20;;;;;;;26.60;47.30;99556.75;5014367;28;20616;-88
2022/06/28 07:21:48;;;;;;;11.50;10.02;;;;;;;26.26;47.10;99480.91;5014489;28;20033;-87
2022/06/28 07:24:14;;;;;;;10.40;6.55;;;;;;;26.38;46.64;99493.31;5024027;28;20022;-88
2022/06/28 07:26:40;;;;;;;7.95;7.25;;;;;;;26.73;46.64;99549.88;5033350;28;20030;-86
2022/06/28 07:29:05;;;;;;;7.68;5.60;;;;;;;26.63;46.71;99520.16;5033153;28;20052;-85
2022/06/28 07:31:31;;;;;;;7.72;5.63;;;;;;;26.98;46.60;99577.91;5013707;28;20505;-86
2022/06/28 07:33:57;;;;;;;8.05;5.88;;;;;;;27.25;46.56;99608.00;5012335;28;20104;-86
2022/06/28 07:36:23;;;;;;;6.85;4.68;;;;;;;27.23;46.25;99602.84;5013159;28;20021;-87
2022/06/28 07:38:49;;;;;;;5.22;4.57;;;;;;;27.08;46.21;99578.59;5011809;28;20029;-87
2022/06/28 07:41:14;;;;;;;8.73;5.63;;;;;;;26.65;46.08;99511.75;5012565;28;20117;-85
2022/06/28 07:43:39;;;;;;;6.25;5.68;;;;;;;25.98;45.48;99397.75;5011537;28;20022;-87
2022/06/28 07:46:05;;;;;;;5.75;4.30;;;;;;;26.40;44.85;99472.16;5011036;28;20395;-87
2022/06/28 07:48:30;;;;;;;4.82;4.00;;;;;;;26.75;44.81;99536.84;5011196;28;20079;-87
2022/06/28 07:53:40;;;;;;;7.05;5.22;;;;;;;27.20;45.02;99595.28;5009146;28;20152;-87
2022/06/28 07:56:05;;;;;;;6.45;4.70;;;;;;;26.87;44.75;99552.75;5011996;28;20038;-87
2022/06/28 07:58:31;;;;;;;4.50;4.10;;;;;;;26.91;44.41;99540.25;5012157;28;20021;-86
2022/06/28 08:00:56;;;;;;;10.82;5.45;;;;;;;27.30;44.06;99563.75;5010523;28;20053;-87
2022/06/28 08:03:22;;;;;;;7.45;5.65;;;;;;;26.67;43.62;99436.44;5012058;28;20021;-87
2022/06/28 08:05:47;;;;;;;5.32;4.32;;;;;;;27.92;43.50;99599.97;5011461;28;20374;-86
2022/06/28 08:08:13;;;;;;;5.95;4.35;;;;;;;28.01;43.47;99614.50;5011743;28;20494;-87
2022/06/28 08:10:38;;;;;;;6.25;4.00;;;;;;;28.06;42.84;99619.88;5012748;28;20112;-87
2022/06/28 08:13:04;;;;;;;4.80;3.65;;;;;;;27.97;42.96;99617.00;5011856;28;20022;-87
2022/06/28 08:15:29;;;;;;;4.63;3.75;;;;;;;27.57;42.46;99515.19;5012869;28;20037;-86
2022/06/28 08:17:55;;;;;;;6.07;3.60;;;;;;;28.11;42.55;99606.22;5011025;28;20524;-87
2022/06/28 08:20:21;;;;;;;6.85;4.13;;;;;;;28.31;42.21;99607.91;5012370;28;20037;-87
2022/06/28 08:22:46;;;;;;;7.03;3.88;;;;;;;28.02;41.45;99576.22;5012017;28;20030;-87
2022/06/28 08:25:12;;;;;;;4.75;3.25;;;;;;;27.71;41.01;99526.16;5011744;28;20030;-87
2022/06/28 08:27:37;;;;;;;6.68;3.75;;;;;;;27.98;40.88;99563.53;5010830;28;20099;-87
2022/06/28 08:30:05;;;;;;;5.35;3.50;;;;;;;28.37;40.63;99607.56;5010840;28;20030;-87
2022/06/28 08:32:30;;;;;;;5.18;3.55;;;;;;;27.76;40.39;99513.34;5010568;28;20030;-87
2022/06/28 08:34:56;;;;;;;5.40;3.33;;;;;;;27.88;40.33;99522.94;5011345;28;20505;-86
2022/06/28 08:37:22;;;;;;;5.90;3.40;;;;;;;28.51;40.11;99607.63;5023294;28;20030;-86
2022/06/28 08:39:48;;;;;;;7.93;3.60;;;;;;;28.58;39.96;99596.38;5017441;28;20026;-87
2022/06/28 08:42:18;;;;;;;7.57;6.53;;;;;;;28.47;39.91;99577.53;5019087;28;20040;-87
2022/06/28 08:44:47;;;;;;;6.82;5.35;;;;;;;28.66;40.06;99601.13;5031074;28;20048;-86
2022/06/28 08:47:14;;;;;;;4.45;3.90;;;;;;;28.61;39.56;99582.19;5014298;28;20041;-87
2022/06/28 08:49:59;;;;;;;9.05;3.80;;;;;;;28.40;38.08;99552.66;5010765;28;20521;-87
2022/06/28 08:52:25;;;;;;;4.45;3.38;;;;;;;28.17;39.04;99518.19;5011076;28;20032;-87
2022/06/28 08:54:51;;;;;;;4.75;3.30;;;;;;;28.77;38.83;99613.47;5010771;28;20041;-87
2022/06/28 08:57:21;;;;;;;6.47;3.25;;;;;;;28.74;38.55;99614.84;5010302;28;20426;-87
2022/06/28 08:59:49;;;;;;;5.57;4.75;;;;;;;28.71;38.81;99611.94;5010411;28;20057;-87
2022/06/28 09:02:17;;;;;;;7.90;3.38;;;;;;;28.26;38.36;99534.69;5011362;28;20034;-87
2022/06/28 09:04:49;;;;;;;6.22;3.50;;;;;;;28.16;38.27;99527.44;5011351;28;20117;-87
2022/06/28 09:07:14;;;;;;;6.03;3.45;;;;;;;28.73;38.58;99607.81;5010988;28;20109;-86
2022/06/28 09:09:40;;;;;;;6.68;4.50;;;;;;;28.60;38.50;99607.75;5011099;28;20117;-86
2022/06/28 09:12:06;;;;;;;6.75;4.93;;;;;;;28.68;38.55;99623.38;5011736;28;20456;-87
2022/06/28 09:14:33;;;;;;;7.70;3.88;;;;;;;28.82;38.12;99620.72;5010842;28;20034;-87
2022/06/28 09:17:26;;;;;;;6.20;3.50;;;;;;;28.83;38.21;99628.56;5010413;28;20052;-87
2022/06/28 09:20:09;;;;;;;4.57;3.10;;;;;;;28.91;38.16;99616.25;5010934;28;20025;-88
2022/06/28 09:22:43;;;;;;;6.35;4.13;;;;;;;28.88;37.41;99597.81;5010801;28;20030;-87
2022/06/28 09:25:12;;;;;;;6.07;3.63;;;;;;;28.04;37.39;99464.63;5006391;28;20069;-87
2022/06/28 09:27:40;;;;;;;8.65;6.22;;;;;;;28.98;37.30;99612.06;5010602;28;20038;-87
2022/06/28 09:30:12;;;;;;;16.02;11.70;;;;;;;28.76;37.26;99590.09;5010256;28;20604;-87
2022/06/28 09:32:39;;;;;;;6.53;3.58;;;;;;;28.46;37.23;99540.59;5011458;28;20018;-88
2022/06/28 09:35:10;;;;;;;6.00;3.88;;;;;;;28.72;36.96;99580.94;5013231;28;20091;-88
2022/06/28 09:37:50;;;;;;;7.22;4.82;;;;;;;28.80;36.92;99600.09;5012395;28;20038;-87
2022/06/28 09:40:31;;;;;;;7.22;6.15;;;;;;;28.61;37.76;99580.28;5013505;28;20029;-87
2022/06/28 09:43:12;;;;;;;7.10;5.00;;;;;;;28.80;37.54;99600.09;5013455;28;20030;-87
2022/06/28 09:45:40;;;;;;;7.25;4.97;;;;;;;28.00;37.97;99494.28;5012691;28;20544;-87
2022/06/28 09:48:06;;;;;;;9.98;6.20;;;;;;;28.70;37.82;99592.09;5011263;28;20034;-86
2022/06/28 09:50:35;;;;;;;6.03;3.90;;;;;;;28.10;37.90;99501.47;5012974;28;20030;-87
2022/06/28 09:53:02;;;;;;;7.13;4.45;;;;;;;28.34;38.38;99548.38;5014796;28;20029;-86
2022/06/28 09:55:31;;;;;;;6.43;4.53;;;;;;;28.79;38.65;99603.09;5013309;28;20046;-87
2022/06/28 09:57:58;;;;;;;10.10;8.85;;;;;;;28.91;38.52;99600.75;5014106;28;20026;-87
2022/06/28 10:00:24;;;;;;;7.00;4.72;;;;;;;29.14;38.39;99599.03;5012865;28;20035;-87
2022/06/28 10:02:54;;;;;;;6.03;3.08;;;;;;;29.38;37.31;99586.06;5014784;28;20062;-87
2022/06/28 10:05:20;;;;;;;4.10;3.70;;;;;;;29.70;37.41;99606.97;5013847;28;20037;-86
2022/06/28 10:07:46;;;;;;;5.82;4.38;;;;;;;29.71;37.01;99616.75;5013755;28;20418;-87
2022/06/28 10:10:12;;;;;;;4.45;3.70;;;;;;;29.14;37.36;99549.28;5030068;28;20034;-87
2022/06/28 10:15:24;;;;;;;6.38;4.03;;;;;;;28.68;37.81;99518.22;5014038;28;20115;-86
2022/06/28 10:18:03;;;;;;;5.72;3.33;;;;;;;28.93;37.80;99576.00;5014274;28;20026;-86
2022/06/28 10:20:30;;;;;;;8.23;5.00;;;;;;;29.14;37.92;99620.78;5015363;28;20025;-89
2022/06/28 10:23:22;;;;;;;4.90;3.90;;;;;;;29.10;37.84;99611.59;5013323;28;20099;-87
2022/06/28 10:26:01;;;;;;;5.82;3.20;;;;;;;29.01;38.13;99619.63;5012029;28;20033;-88
2022/06/28 10:28:33;;;;;;;5.22;3.92;;;;;;;28.57;38.56;99552.09;5015219;28;20088;-88
2022/06/28 10:31:23;;;;;;;4.78;3.35;;;;;;;29.08;38.78;99619.25;5015149;28;20018;-88
2022/06/28 10:33:54;;;;;;;5.17;4.20;;;;;;;29.31;38.76;99622.94;5013347;28;20029;-88
2022/06/28 10:36:21;;;;;;;;;;;;;;;29.56;38.14;99614.31;5012172;28;20037;-87
2022/06/28 10:39:17;;;;;;;4.95;4.25;;;;;;;29.48;38.22;99567.97;5012669;28;20274;-87
2022/06/28 10:41:47;;;;;;;7.45;4.40;;;;;;;29.59;38.02;99604.75;5003188;28;20033;-87
2022/06/28 10:44:26;;;;;;;5.78;4.57;;;;;;;29.73;38.33;99611.81;5012520;28;20030;-87
2022/06/28 10:47:01;;;;;;;5.13;3.30;;;;;;;29.68;37.89;99611.91;5012026;28;20040;-87
2022/06/28 10:49:50;;;;;;;5.18;3.35;;;;;;;29.59;37.71;99572.09;5002117;28;20030;-88
2022/06/28 10:52:29;;;;;;;4.45;3.53;;;;;;;29.78;36.79;99564.66;5028130;28;20022;-87
2022/06/28 10:54:54;;;;;;;5.10;3.38;;;;;;;30.03;37.32;99599.53;4997901;28;20521;-88
2022/06/28 10:57:20;;;;;;;4.38;3.58;;;;;;;30.11;37.43;99598.00;5012970;28;20026;-88
2022/06/28 10:59:51;;;;;;;4.35;3.53;;;;;;;30.04;37.36;99576.63;5013203;28;20030;-87
2022/06/28 11:02:17;;;;;;;5.63;3.45;;;;;;;29.41;37.41;99519.38;5013436;28;20117;-86
2022/06/28 11:04:44;;;;;;;5.35;3.80;;;;;;;29.94;38.10;99608.69;5014201;28;20045;-86
2022/06/28 11:07:23;;;;;;;4.20;3.65;;;;;;;29.87;37.59;99600.94;5012736;28;20033;-86
2022/06/28 11:10:00;;;;;;;8.65;3.67;;;;;;;29.81;37.86;99593.19;5007217;28;20144;-86
2022/06/28 11:12:32;;;;;;;5.47;3.30;;;;;;;29.72;37.78;99580.25;5013616;28;20487;-86
2022/06/28 11:14:59;;;;;;;6.35;3.65;;;;;;;29.70;37.72;99579.75;5016025;28;20474;-85
2022/06/28 11:17:29;;;;;;;6.47;3.88;;;;;;;29.15;37.88;99502.75;5013221;28;20039;-86
2022/06/28 11:19:57;;;;;;;4.77;3.60;;;;;;;29.71;38.06;99566.94;5000614;28;20032;-86
2022/06/28 11:22:25;;;;;;;5.22;3.20;;;;;;;29.87;37.47;99587.31;5013325;28;20429;-86
2022/06/28 11:24:52;;;;;;;7.93;4.85;;;;;;;29.38;37.80;99503.66;5011883;28;20030;-86
2022/06/28 11:27:21;;;;;;;5.75;4.10;;;;;;;29.84;37.62;99557.19;5009917;28;20041;-86
2022/06/28 11:30:14;;;;;;;4.18;3.78;;;;;;;29.54;37.87;99498.75;5011858;28;20037;-86
2022/06/28 11:32:45;;;;;;;8.30;4.35;;;;;;;30.01;37.87;99577.25;5008585;28;20113;-85
2022/06/28 11:35:20;;;;;;;5.50;3.67;;;;;;;30.09;37.27;99570.25;5012568;28;20030;-86
2022/06/28 11:38:05;;;;;;;5.55;4.22;;;;;;;29.82;37.49;99513.13;5011370;28;20052;-86
2022/06/28 11:40:52;;;;;;;8.75;5.20;;;;;;;30.27;37.04;99573.94;5011772;28;20032;-86
2022/06/28 11:43:19;;;;;;;8.90;5.72;;;;;;;30.30;36.43;99571.41;5011045;28;20030;-87
2022/06/28 11:45:49;;;;;;;5.28;3.88;;;;;;;30.01;36.16;99530.97;5012022;28;20029;-86
2022/06/28 11:48:21;;;;;;;5.10;3.33;;;;;;;30.65;35.63;99528.94;5010077;28;20108;-86
2022/06/28 11:50:52;;;;;;;4.72;4.20;;;;;;;31.11;35.50;99590.47;5012679;28;20486;-86